createdAt,value
2019-04-14T00:00:20.794Z,102264.59
2019-04-14T00:01:04.239Z,102263.80
2019-04-14T00:01:39.811Z,102263.84
2019-04-14T00:02:11.899Z,102264.82
2019-04-14T00:02:47.009Z,102263.05
2019-04-14T00:03:17.186Z,102260.87
2019-04-14T00:03:52.698Z,102264.05
2019-04-14T00:04:18.985Z,102260.08
2019-04-14T00:04:46.258Z,102260.55
2019-04-14T00:05:16.808Z,102266.88
2019-04-14T00:05:42.953Z,102263.30
2019-04-14T00:06:09.012Z,102262.84
2019-04-14T00:06:35.175Z,102257.52
2019-04-14T00:06:59.895Z,102261.95
2019-04-14T00:07:25.473Z,102262.84
2019-04-14T00:07:50.127Z,102261.16
2019-04-14T00:08:15.502Z,102261.11
2019-04-14T00:08:40.146Z,102262.45
2019-04-14T00:09:07.576Z,102262.45
2019-04-14T00:09:32.239Z,102256.91
2019-04-14T00:09:56.923Z,102264.19
2019-04-14T00:10:22.558Z,102257.44
2019-04-14T00:10:48.530Z,102264.13
2019-04-14T00:11:13.338Z,102261.44
2019-04-14T00:11:45.938Z,102257.84
2019-04-14T00:12:12.110Z,102263.20
2019-04-14T00:12:38.309Z,102259.61
2019-04-14T00:13:03.103Z,102262.31
2019-04-14T00:13:28.543Z,102259.53
2019-04-14T00:13:54.461Z,102264.05
2019-04-14T00:14:19.192Z,102261.30
2019-04-14T00:14:44.712Z,102258.13
2019-04-14T00:15:23.313Z,102268.45
2019-04-14T00:15:41.974Z,102262.12
2019-04-14T00:16:03.845Z,102260.36
2019-04-14T00:16:29.167Z,102260.41
2019-04-14T00:16:53.840Z,102260.83
2019-04-14T00:17:19.443Z,102263.05
2019-04-14T00:17:44.137Z,102263.47
2019-04-14T00:18:09.686Z,102261.62
2019-04-14T00:18:34.459Z,102260.77
2019-04-14T00:18:59.834Z,102264.31
2019-04-14T00:19:24.530Z,102258.92
2019-04-14T00:19:50.188Z,102262.97
2019-04-14T00:20:14.962Z,102259.80
2019-04-14T00:20:40.466Z,102262.50
2019-04-14T00:21:06.493Z,102262.97
2019-04-14T00:21:32.436Z,102262.50
2019-04-14T00:22:03.259Z,102259.33
2019-04-14T00:22:29.528Z,102262.03
2019-04-14T00:22:55.290Z,102264.27
2019-04-14T00:23:20.183Z,102261.05
2019-04-14T00:23:45.624Z,102262.03
2019-04-14T00:24:11.591Z,102264.27
2019-04-14T00:24:36.418Z,102259.80
2019-04-14T00:25:02.273Z,102262.97
2019-04-14T00:25:28.265Z,102262.97
2019-04-14T00:25:52.967Z,102258.54
2019-04-14T00:26:29.344Z,102259.89
2019-04-14T00:26:55.225Z,102260.27
2019-04-14T00:27:19.951Z,102264.73
2019-04-14T00:27:45.318Z,102261.62
2019-04-14T00:28:10.013Z,102260.27
2019-04-14T00:28:35.594Z,102261.09
2019-04-14T00:29:00.533Z,102258.86
2019-04-14T00:29:26.318Z,102258.39
2019-04-14T00:29:51.027Z,102258.45
2019-04-14T00:30:18.646Z,102262.91
2019-04-14T00:30:43.367Z,102261.56
2019-04-14T00:31:08.712Z,102260.68
2019-04-14T00:31:33.413Z,102257.56
2019-04-14T00:31:58.786Z,102256.72
2019-04-14T00:32:24.732Z,102259.42
2019-04-14T00:33:10.613Z,102264.31
2019-04-14T00:33:36.652Z,102260.27
2019-04-14T00:34:09.338Z,102257.56
2019-04-14T00:34:36.035Z,102257.19
2019-04-14T00:35:02.322Z,102252.73
2019-04-14T00:35:45.285Z,102253.66
2019-04-14T00:36:11.559Z,102260.41
2019-04-14T00:36:48.159Z,102256.91
2019-04-14T00:37:18.439Z,102261.44
2019-04-14T00:38:02.376Z,102256.50
2019-04-14T00:38:32.317Z,102254.41
2019-04-14T00:38:57.131Z,102257.99
2019-04-14T00:39:32.137Z,102262.51
2019-04-14T00:39:59.656Z,102258.13
2019-04-14T00:40:41.135Z,102255.44
2019-04-14T00:41:13.754Z,102256.38
2019-04-14T00:41:54.064Z,102254.61
2019-04-14T00:42:17.273Z,102257.30
2019-04-14T00:42:49.503Z,102257.45
2019-04-14T00:43:15.816Z,102250.75
2019-04-14T00:43:42.122Z,102256.56
2019-04-14T00:44:27.530Z,102255.68
2019-04-14T00:44:53.937Z,102254.47
2019-04-14T00:45:32.166Z,102257.97
2019-04-14T00:45:53.634Z,102259.31
2019-04-14T00:46:21.871Z,102255.27
2019-04-14T00:46:51.671Z,102258.44
2019-04-14T00:47:31.038Z,102256.15
2019-04-14T00:48:07.936Z,102252.56
2019-04-14T00:48:30.390Z,102257.50
2019-04-14T00:48:56.019Z,102252.19
2019-04-14T00:49:21.933Z,102257.50
2019-04-14T00:49:46.823Z,102252.10
2019-04-14T00:50:12.499Z,102250.34
2019-04-14T00:50:37.215Z,102254.89
2019-04-14T00:51:02.754Z,102257.58
2019-04-14T00:51:28.697Z,102254.33
2019-04-14T00:51:53.433Z,102254.75
2019-04-14T00:52:18.994Z,102247.59
2019-04-14T00:52:43.758Z,102250.28
2019-04-14T00:53:08.383Z,102251.63
2019-04-14T00:53:33.897Z,102248.94
2019-04-14T00:53:58.622Z,102252.47
2019-04-14T00:54:23.970Z,102250.14
2019-04-14T00:54:49.976Z,102253.26
2019-04-14T00:55:14.795Z,102254.19
2019-04-14T00:55:40.118Z,102251.44
2019-04-14T00:56:06.101Z,102251.91
2019-04-14T00:56:32.055Z,102254.61
2019-04-14T00:56:56.935Z,102256.38
2019-04-14T00:57:22.369Z,102250.50
2019-04-14T00:57:47.083Z,102248.27
2019-04-14T00:58:12.784Z,102250.03
2019-04-14T00:58:37.486Z,102250.97
2019-04-14T00:59:02.814Z,102253.12
2019-04-14T00:59:27.531Z,102245.11
2019-04-14T00:59:53.068Z,102253.12
2019-04-14T01:00:19.252Z,102254.47
2019-04-14T01:00:45.133Z,102252.59
2019-04-14T01:01:11.122Z,102246.78
2019-04-14T01:01:35.828Z,102246.78
2019-04-14T01:02:01.347Z,102249.02
2019-04-14T01:02:26.142Z,102252.18
2019-04-14T01:02:51.563Z,102246.78
2019-04-14T01:03:16.358Z,102250.78
2019-04-14T01:03:41.562Z,102254.36
2019-04-14T01:04:06.260Z,102248.55
2019-04-14T01:04:31.897Z,102250.83
2019-04-14T01:04:57.746Z,102246.31
2019-04-14T01:05:22.621Z,102243.67
2019-04-14T01:05:48.157Z,102248.13
2019-04-14T01:06:14.216Z,102245.44
2019-04-14T01:06:38.998Z,102244.50
2019-04-14T01:07:04.367Z,102246.26
2019-04-14T01:07:30.411Z,102246.31
2019-04-14T01:07:55.191Z,102245.84
2019-04-14T01:08:20.626Z,102249.89
2019-04-14T01:08:45.342Z,102249.89
2019-04-14T01:09:12.847Z,102244.08
2019-04-14T01:09:39.045Z,102244.08
2019-04-14T01:10:04.007Z,102245.44
2019-04-14T01:10:29.965Z,102246.26
2019-04-14T01:10:54.727Z,102244.91
2019-04-14T01:11:20.313Z,102244.91
2019-04-14T01:11:45.015Z,102241.80
2019-04-14T01:12:10.306Z,102237.28
2019-04-14T01:12:35.066Z,102244.41
2019-04-14T01:13:00.615Z,102238.95
2019-04-14T01:13:25.356Z,102240.86
2019-04-14T01:13:50.825Z,102238.55
2019-04-14T01:14:16.857Z,102239.52
2019-04-14T01:14:43.047Z,102240.36
2019-04-14T01:15:07.883Z,102241.80
2019-04-14T01:15:47.022Z,102242.21
2019-04-14T01:16:07.285Z,102238.22
2019-04-14T01:16:26.522Z,102236.40
2019-04-14T01:16:51.838Z,102242.21
2019-04-14T01:17:17.634Z,102242.68
2019-04-14T01:17:42.353Z,102235.52
2019-04-14T01:18:07.895Z,102242.21
2019-04-14T01:18:32.655Z,102241.80
2019-04-14T01:18:58.040Z,102244.41
2019-04-14T01:19:22.919Z,102243.56
2019-04-14T01:19:48.446Z,102245.38
2019-04-14T01:20:14.526Z,102248.96
2019-04-14T01:20:40.550Z,102241.80
2019-04-14T01:21:05.224Z,102247.25
2019-04-14T01:21:30.731Z,102247.20
2019-04-14T01:21:56.645Z,102244.50
2019-04-14T01:22:22.698Z,102247.25
2019-04-14T01:22:48.755Z,102243.67
2019-04-14T01:23:13.569Z,102245.44
2019-04-14T01:23:39.190Z,102244.55
2019-04-14T01:24:05.233Z,102250.31
2019-04-14T01:24:30.074Z,102246.26
2019-04-14T01:24:55.365Z,102250.31
2019-04-14T01:25:20.042Z,102249.02
2019-04-14T01:25:45.331Z,102245.84
2019-04-14T01:26:10.146Z,102245.44
2019-04-14T01:26:35.636Z,102246.78
2019-04-14T01:27:01.612Z,102246.78
2019-04-14T01:27:27.650Z,102242.73
2019-04-14T01:27:52.382Z,102249.53
2019-04-14T01:28:17.957Z,102248.69
2019-04-14T01:28:43.953Z,102247.72
2019-04-14T01:29:10.043Z,102248.13
2019-04-14T01:29:34.764Z,102243.67
2019-04-14T01:30:00.335Z,102249.07
2019-04-14T01:30:26.206Z,102253.06
2019-04-14T01:30:52.191Z,102248.13
2019-04-14T01:31:18.365Z,102254.88
2019-04-14T01:31:43.148Z,102249.07
2019-04-14T01:32:08.785Z,102246.78
2019-04-14T01:32:33.468Z,102252.18
2019-04-14T01:32:58.887Z,102253.94
2019-04-14T01:33:23.618Z,102254.88
2019-04-14T01:33:49.100Z,102252.59
2019-04-14T01:34:15.089Z,102250.83
2019-04-14T01:34:41.142Z,102252.18
2019-04-14T01:35:05.906Z,102250.88
2019-04-14T01:35:31.439Z,102254.00
2019-04-14T01:35:57.330Z,102249.95
2019-04-14T01:36:22.044Z,102254.00
2019-04-14T01:36:47.510Z,102254.08
2019-04-14T01:37:12.280Z,102254.55
2019-04-14T01:37:37.578Z,102255.44
2019-04-14T01:38:03.683Z,102254.93
2019-04-14T01:38:29.636Z,102254.47
2019-04-14T01:38:55.635Z,102258.52
2019-04-14T01:39:20.345Z,102265.26
2019-04-14T01:39:45.977Z,102264.52
2019-04-14T01:40:11.982Z,102261.77
2019-04-14T01:40:36.709Z,102258.59
2019-04-14T01:41:02.119Z,102259.06
2019-04-14T01:41:28.120Z,102261.30
2019-04-14T01:41:54.214Z,102264.00
2019-04-14T01:42:20.232Z,102259.48
2019-04-14T01:42:46.247Z,102264.88
2019-04-14T01:43:10.973Z,102261.77
2019-04-14T01:43:36.782Z,102262.19
2019-04-14T01:44:02.456Z,102264.00
2019-04-14T01:44:28.433Z,102264.47
2019-04-14T01:44:53.092Z,102264.88
2019-04-14T01:45:18.820Z,102271.54
2019-04-14T01:45:44.865Z,102267.96
2019-04-14T01:46:17.803Z,102271.54
2019-04-14T01:46:37.383Z,102262.56
2019-04-14T01:47:03.105Z,102270.66
2019-04-14T01:47:29.186Z,102264.47
2019-04-14T01:47:53.941Z,102266.23
2019-04-14T01:48:19.239Z,102269.39
2019-04-14T01:48:45.150Z,102265.26
2019-04-14T01:49:10.010Z,102268.42
2019-04-14T01:49:35.437Z,102267.02
2019-04-14T01:50:01.643Z,102266.61
2019-04-14T01:50:32.286Z,102265.26
2019-04-14T01:50:58.694Z,102265.73
2019-04-14T01:51:25.006Z,102266.23
2019-04-14T01:52:03.818Z,102264.37
2019-04-14T01:52:39.014Z,102267.08
2019-04-14T01:53:06.063Z,102267.16
2019-04-14T01:53:33.546Z,102263.53
2019-04-14T01:54:06.077Z,102267.16
2019-04-14T01:54:41.346Z,102266.28
2019-04-14T01:55:15.433Z,102267.69
2019-04-14T01:55:44.248Z,102269.50
2019-04-14T01:56:10.521Z,102268.23
2019-04-14T01:56:53.667Z,102266.48
2019-04-14T01:57:22.833Z,102270.11
2019-04-14T01:57:54.901Z,102266.20
2019-04-14T01:58:21.178Z,102266.20
2019-04-14T01:58:47.442Z,102269.83
2019-04-14T01:59:13.826Z,102266.75
2019-04-14T01:59:39.131Z,102268.48
2019-04-14T02:00:26.994Z,102266.75
2019-04-14T02:00:59.658Z,102276.20
2019-04-14T02:01:26.136Z,102277.13
2019-04-14T02:01:56.480Z,102268.62
2019-04-14T02:02:22.979Z,102270.44
2019-04-14T02:02:48.687Z,102268.62
2019-04-14T02:03:13.511Z,102267.69
2019-04-14T02:03:38.764Z,102272.15
2019-04-14T02:04:04.881Z,102265.92
2019-04-14T02:04:29.733Z,102273.55
2019-04-14T02:04:55.358Z,102272.25
2019-04-14T02:05:21.320Z,102274.91
2019-04-14T02:05:47.248Z,102267.69
2019-04-14T02:06:12.075Z,102276.20
2019-04-14T02:06:37.602Z,102273.08
2019-04-14T02:07:02.285Z,102280.24
2019-04-14T02:07:27.626Z,102270.80
2019-04-14T02:07:53.657Z,102274.84
2019-04-14T02:08:19.800Z,102280.24
2019-04-14T02:08:45.722Z,102275.37
2019-04-14T02:09:12.140Z,102280.71
2019-04-14T02:09:37.898Z,102277.05
2019-04-14T02:10:03.916Z,102283.87
2019-04-14T02:10:28.650Z,102276.20
2019-04-14T02:10:54.385Z,102279.36
2019-04-14T02:11:20.454Z,102283.41
2019-04-14T02:11:46.309Z,102287.37
2019-04-14T02:12:11.239Z,102288.34
2019-04-14T02:12:36.598Z,102281.98
2019-04-14T02:13:01.219Z,102289.14
2019-04-14T02:13:26.826Z,102284.29
2019-04-14T02:13:52.888Z,102283.87
2019-04-14T02:14:18.986Z,102279.69
2019-04-14T02:14:45.084Z,102278.34
2019-04-14T02:15:11.206Z,102282.86
2019-04-14T02:15:37.314Z,102281.05
2019-04-14T02:16:16.512Z,102280.16
2019-04-14T02:16:34.940Z,102289.55
2019-04-14T02:16:57.895Z,102281.05
2019-04-14T02:17:22.068Z,102282.81
2019-04-14T02:17:48.075Z,102281.09
2019-04-14T02:18:14.250Z,102276.99
2019-04-14T02:18:39.044Z,102286.44
2019-04-14T02:19:04.593Z,102282.95
2019-04-14T02:19:30.555Z,102278.90
2019-04-14T02:19:56.669Z,102281.09
2019-04-14T02:20:21.428Z,102281.09
2019-04-14T02:20:46.857Z,102282.95
2019-04-14T02:21:12.739Z,102286.58
2019-04-14T02:21:38.766Z,102286.58
2019-04-14T02:22:05.099Z,102283.00
2019-04-14T02:22:29.764Z,102285.70
2019-04-14T02:22:55.327Z,102278.48
2019-04-14T02:23:21.382Z,102282.53
2019-04-14T02:23:47.437Z,102279.41
2019-04-14T02:24:13.431Z,102281.23
2019-04-14T02:24:39.472Z,102278.06
2019-04-14T02:25:05.575Z,102283.46
2019-04-14T02:25:31.665Z,102282.67
2019-04-14T02:25:57.841Z,102282.67
2019-04-14T02:26:44.347Z,102270.39
2019-04-14T02:27:09.839Z,102278.12
2019-04-14T02:27:34.543Z,102278.12
2019-04-14T02:28:00.114Z,102278.06
2019-04-14T02:28:24.907Z,102278.12
2019-04-14T02:28:50.436Z,102282.67
2019-04-14T02:29:16.868Z,102283.60
2019-04-14T02:29:45.113Z,102282.67
2019-04-14T02:30:14.918Z,102281.31
2019-04-14T02:30:44.177Z,102283.52
2019-04-14T02:31:17.563Z,102285.83
2019-04-14T02:31:56.985Z,102290.77
2019-04-14T02:32:25.814Z,102284.06
2019-04-14T02:32:49.831Z,102287.56
2019-04-14T02:33:15.515Z,102289.80
2019-04-14T02:33:44.458Z,102293.05
2019-04-14T02:34:07.448Z,102287.64
2019-04-14T02:34:39.174Z,102293.45
2019-04-14T02:34:55.201Z,102287.64
2019-04-14T02:35:32.084Z,102285.88
2019-04-14T02:35:59.759Z,102293.05
2019-04-14T02:36:27.878Z,102294.39
2019-04-14T02:36:45.976Z,102289.00
2019-04-14T02:37:10.774Z,102297.56
2019-04-14T02:37:44.882Z,102292.21
2019-04-14T02:38:16.177Z,102293.98
2019-04-14T02:38:49.233Z,102288.11
2019-04-14T02:38:59.579Z,102294.39
2019-04-14T02:39:39.144Z,102293.52
2019-04-14T02:39:53.920Z,102296.67
2019-04-14T02:40:18.619Z,102296.27
2019-04-14T02:40:49.194Z,102293.56
2019-04-14T02:41:10.664Z,102294.44
2019-04-14T02:41:44.266Z,102292.21
2019-04-14T02:42:07.712Z,102296.27
2019-04-14T02:43:27.516Z,102297.61
2019-04-14T02:44:01.446Z,102294.91
2019-04-14T02:44:33.538Z,102295.88
2019-04-14T02:45:12.650Z,102290.86
2019-04-14T02:45:40.789Z,102289.52
2019-04-14T02:45:57.480Z,102293.56
2019-04-14T02:46:34.520Z,102293.09
2019-04-14T02:47:36.890Z,102293.18
2019-04-14T02:48:02.505Z,102288.16
2019-04-14T02:48:40.772Z,102288.66
2019-04-14T02:48:44.179Z,102291.41
2019-04-14T02:49:59.731Z,102292.62
2019-04-14T02:50:22.993Z,102287.32
2019-04-14T02:50:47.745Z,102294.06
2019-04-14T02:51:19.358Z,102288.66
2019-04-14T02:51:42.341Z,102290.86
2019-04-14T02:52:12.115Z,102288.58
2019-04-14T02:52:35.397Z,102288.16
2019-04-14T02:53:07.692Z,102289.52
2019-04-14T02:53:39.301Z,102292.21
2019-04-14T02:54:23.376Z,102292.21
2019-04-14T02:55:10.992Z,102293.05
2019-04-14T02:55:42.476Z,102293.05
2019-04-14T02:56:16.379Z,102292.62
2019-04-14T02:57:05.431Z,102291.83
2019-04-14T02:57:26.040Z,102289.93
2019-04-14T02:57:52.198Z,102296.20
2019-04-14T02:58:28.843Z,102296.67
2019-04-14T02:58:52.065Z,102295.73
2019-04-14T02:59:43.175Z,102301.14
2019-04-14T03:00:49.038Z,102295.33
2019-04-14T03:02:09.987Z,102304.77
2019-04-14T03:03:03.485Z,102300.72
2019-04-14T03:03:16.453Z,102300.72
2019-04-14T03:03:40.341Z,102303.37
2019-04-14T03:04:04.055Z,102304.72
2019-04-14T03:04:37.478Z,102299.79
2019-04-14T03:04:56.829Z,102301.19
2019-04-14T03:05:27.057Z,102305.23
2019-04-14T03:05:53.182Z,102297.61
2019-04-14T03:06:14.526Z,102303.00
2019-04-14T03:06:44.545Z,102303.50
2019-04-14T03:07:36.280Z,102306.59
2019-04-14T03:08:04.322Z,102304.36
2019-04-14T03:08:34.507Z,102305.23
2019-04-14T03:08:59.001Z,102306.59
2019-04-14T03:09:34.715Z,102305.23
2019-04-14T03:10:17.934Z,102306.12
2019-04-14T03:10:40.330Z,102306.53
2019-04-14T03:11:11.660Z,102311.93
2019-04-14T03:11:33.808Z,102310.16
2019-04-14T03:12:38.459Z,102307.47
2019-04-14T03:13:44.971Z,102311.00
2019-04-14T03:14:40.310Z,102310.63
2019-04-14T03:15:01.034Z,102309.28
2019-04-14T03:15:31.817Z,102303.84
2019-04-14T03:16:31.492Z,102309.28
2019-04-14T03:17:21.396Z,102301.27
2019-04-14T03:18:24.458Z,102301.61
2019-04-14T03:18:50.101Z,102303.50
2019-04-14T03:19:27.231Z,102302.20
2019-04-14T03:20:17.561Z,102304.95
2019-04-14T03:20:39.508Z,102301.88
2019-04-14T03:21:38.074Z,102297.41
2019-04-14T03:21:49.291Z,102299.23
2019-04-14T03:22:33.081Z,102300.63
2019-04-14T03:22:51.794Z,102300.16
2019-04-14T03:23:33.008Z,102300.25
2019-04-14T03:23:56.430Z,102298.95
2019-04-14T03:24:30.102Z,102296.77
2019-04-14T03:24:50.318Z,102306.21
2019-04-14T03:25:43.290Z,102297.31
2019-04-14T03:26:12.194Z,102303.59
2019-04-14T03:26:47.409Z,102303.18
2019-04-14T03:27:17.699Z,102301.88
2019-04-14T03:28:30.545Z,102303.18
2019-04-14T03:29:08.172Z,102298.25
2019-04-14T03:29:35.836Z,102299.19
2019-04-14T03:30:08.747Z,102299.19
2019-04-14T03:31:03.791Z,102304.20
2019-04-14T03:31:51.979Z,102304.20
2019-04-14T03:32:38.996Z,102304.58
2019-04-14T03:33:31.749Z,102302.39
2019-04-14T03:34:30.580Z,102308.24
2019-04-14T03:34:42.141Z,102306.44
2019-04-14T03:35:20.001Z,102306.89
2019-04-14T03:36:05.742Z,102302.84
2019-04-14T03:36:16.754Z,102303.23
2019-04-14T03:38:13.272Z,102308.63
2019-04-14T03:38:53.600Z,102308.63
2019-04-14T03:39:36.933Z,102311.32
2019-04-14T03:40:18.223Z,102312.67
2019-04-14T03:41:29.151Z,102312.67
2019-04-14T03:41:41.324Z,102309.04
2019-04-14T03:42:19.806Z,102314.39
2019-04-14T03:42:37.848Z,102306.81
2019-04-14T03:43:04.050Z,102307.23
2019-04-14T03:43:25.034Z,102313.50
2019-04-14T03:43:43.126Z,102309.45
2019-04-14T03:44:19.175Z,102309.04
2019-04-14T03:45:03.647Z,102312.57
2019-04-14T03:45:45.131Z,102313.92
2019-04-14T03:47:21.765Z,102304.06
2019-04-14T03:47:53.164Z,102305.41
2019-04-14T03:49:08.037Z,102306.71
2019-04-14T03:50:02.523Z,102309.88
2019-04-14T03:50:23.152Z,102305.41
2019-04-14T03:50:55.475Z,102306.21
2019-04-14T03:51:33.610Z,102308.11
2019-04-14T03:51:50.442Z,102302.25
2019-04-14T03:52:08.750Z,102307.17
2019-04-14T03:52:43.644Z,102306.76
2019-04-14T03:53:09.629Z,102297.31
2019-04-14T03:53:26.299Z,102301.31
2019-04-14T03:53:54.484Z,102304.86
2019-04-14T03:54:18.848Z,102300.02
2019-04-14T03:54:40.576Z,102296.85
2019-04-14T03:55:05.749Z,102305.83
2019-04-14T03:55:43.243Z,102300.89
2019-04-14T03:56:10.160Z,102303.64
2019-04-14T03:56:49.258Z,102304.99
2019-04-14T03:57:14.922Z,102296.91
2019-04-14T03:57:39.711Z,102299.59
2019-04-14T03:58:05.843Z,102305.09
2019-04-14T03:58:31.485Z,102306.89
2019-04-14T03:58:56.246Z,102299.75
2019-04-14T03:59:21.914Z,102307.92
2019-04-14T03:59:47.719Z,102306.99
2019-04-14T04:00:13.782Z,102304.77
2019-04-14T04:00:38.587Z,102306.11
2019-04-14T04:01:04.037Z,102301.64
2019-04-14T04:01:30.131Z,102311.04
2019-04-14T04:01:54.977Z,102310.07
2019-04-14T04:02:20.483Z,102305.14
2019-04-14T04:02:45.269Z,102306.49
2019-04-14T04:03:10.644Z,102308.34
2019-04-14T04:03:35.383Z,102309.27
2019-04-14T04:04:00.716Z,102308.72
2019-04-14T04:04:25.454Z,102313.19
2019-04-14T04:04:51.262Z,102312.30
2019-04-14T04:05:17.324Z,102311.84
2019-04-14T04:05:43.224Z,102312.75
2019-04-14T04:06:08.112Z,102310.94
2019-04-14T04:06:33.507Z,102311.84
2019-04-14T04:06:59.519Z,102311.84
2019-04-14T04:07:25.608Z,102309.14
2019-04-14T04:07:50.385Z,102315.37
2019-04-14T04:08:16.191Z,102317.13
2019-04-14T04:08:41.980Z,102319.36
2019-04-14T04:09:08.360Z,102318.89
2019-04-14T04:09:38.690Z,102317.59
2019-04-14T04:10:07.102Z,102314.44
2019-04-14T04:10:32.049Z,102320.66
2019-04-14T04:10:58.315Z,102316.62
2019-04-14T04:11:23.769Z,102322.06
2019-04-14T04:11:49.740Z,102319.83
2019-04-14T04:12:14.569Z,102317.08
2019-04-14T04:12:39.965Z,102322.39
2019-04-14T04:13:04.781Z,102317.13
2019-04-14T04:13:30.230Z,102322.95
2019-04-14T04:13:56.262Z,102317.55
2019-04-14T04:14:22.349Z,102318.44
2019-04-14T04:14:47.097Z,102320.66
2019-04-14T04:15:12.595Z,102317.55
2019-04-14T04:15:37.258Z,102317.97
2019-04-14T04:16:15.936Z,102317.08
2019-04-14T04:16:51.432Z,102319.78
2019-04-14T04:17:18.914Z,102318.48
2019-04-14T04:17:45.694Z,102321.59
2019-04-14T04:18:12.009Z,102319.31
2019-04-14T04:18:48.825Z,102317.59
2019-04-14T04:19:12.968Z,102321.27
2019-04-14T04:19:51.409Z,102319.41
2019-04-14T04:20:21.723Z,102317.59
2019-04-14T04:20:50.769Z,102319.41
2019-04-14T04:21:18.310Z,102314.02
2019-04-14T04:21:50.968Z,102315.88
2019-04-14T04:22:34.645Z,102319.05
2019-04-14T04:23:05.117Z,102319.13
2019-04-14T04:23:34.215Z,102317.83
2019-04-14T04:24:00.559Z,102320.53
2019-04-14T04:24:31.801Z,102318.30
2019-04-14T04:25:03.133Z,102321.92
2019-04-14T04:25:33.055Z,102320.99
2019-04-14T04:26:06.179Z,102320.99
2019-04-14T04:26:32.551Z,102320.95
2019-04-14T04:26:58.807Z,102321.92
2019-04-14T04:27:44.035Z,102322.81
2019-04-14T04:28:10.462Z,102321.46
2019-04-14T04:28:47.101Z,102325.09
2019-04-14T04:29:13.621Z,102324.23
2019-04-14T04:29:48.754Z,102317.55
2019-04-14T04:30:31.830Z,102320.24
2019-04-14T04:30:58.196Z,102322.47
2019-04-14T04:31:24.475Z,102325.17
2019-04-14T04:32:09.947Z,102325.64
2019-04-14T04:32:42.601Z,102327.78
2019-04-14T04:33:24.204Z,102322.94
2019-04-14T04:33:56.623Z,102319.36
2019-04-14T04:34:22.909Z,102322.47
2019-04-14T04:34:53.392Z,102319.36
2019-04-14T04:35:22.268Z,102322.52
2019-04-14T04:35:52.134Z,102321.64
2019-04-14T04:36:22.429Z,102322.11
2019-04-14T04:36:57.521Z,102318.06
2019-04-14T04:37:23.859Z,102324.34
2019-04-14T04:37:54.090Z,102324.75
2019-04-14T04:38:20.503Z,102322.06
2019-04-14T04:38:46.761Z,102323.95
2019-04-14T04:39:28.073Z,102328.33
2019-04-14T04:39:54.419Z,102326.10
2019-04-14T04:40:20.689Z,102324.80
2019-04-14T04:40:46.141Z,102325.69
2019-04-14T04:41:10.923Z,102329.34
2019-04-14T04:41:36.434Z,102330.56
2019-04-14T04:42:02.671Z,102323.83
2019-04-14T04:42:28.583Z,102324.34
2019-04-14T04:42:53.382Z,102330.98
2019-04-14T04:43:18.934Z,102324.28
2019-04-14T04:43:43.695Z,102329.22
2019-04-14T04:44:09.312Z,102330.02
2019-04-14T04:44:35.364Z,102331.73
2019-04-14T04:45:00.232Z,102329.92
2019-04-14T04:45:25.666Z,102330.39
2019-04-14T04:45:51.599Z,102338.81
2019-04-14T04:46:17.602Z,102330.77
2019-04-14T04:46:43.716Z,102336.11
2019-04-14T04:47:09.796Z,102333.88
2019-04-14T04:47:34.751Z,102333.86
2019-04-14T04:48:00.249Z,102334.33
2019-04-14T04:48:26.292Z,102334.25
2019-04-14T04:49:01.967Z,102328.01
2019-04-14T04:49:21.784Z,102337.83
2019-04-14T04:49:44.715Z,102336.89
2019-04-14T04:50:10.686Z,102334.67
2019-04-14T04:50:36.721Z,102334.20
2019-04-14T04:51:02.849Z,102339.55
2019-04-14T04:51:28.918Z,102335.50
2019-04-14T04:51:53.728Z,102331.45
2019-04-14T04:52:19.129Z,102333.19
2019-04-14T04:52:43.767Z,102337.23
2019-04-14T04:53:09.087Z,102335.88
2019-04-14T04:53:33.884Z,102333.19
2019-04-14T04:53:59.452Z,102327.79
2019-04-14T04:54:24.189Z,102335.42
2019-04-14T04:54:49.602Z,102328.67
2019-04-14T04:55:15.514Z,102334.02
2019-04-14T04:55:40.271Z,102333.09
2019-04-14T04:56:05.767Z,102331.73
2019-04-14T04:56:30.518Z,102332.12
2019-04-14T04:56:55.883Z,102330.39
2019-04-14T04:57:20.674Z,102333.09
2019-04-14T04:57:46.009Z,102336.72
2019-04-14T04:58:12.020Z,102333.09
2019-04-14T04:58:37.175Z,102326.73
2019-04-14T04:59:01.930Z,102329.04
2019-04-14T04:59:27.767Z,102333.97
2019-04-14T04:59:53.964Z,102337.05
2019-04-14T05:00:19.956Z,102332.12
2019-04-14T05:00:47.292Z,102332.20
2019-04-14T05:01:11.030Z,102328.16
2019-04-14T05:01:36.481Z,102333.09
2019-04-14T05:02:01.264Z,102334.81
2019-04-14T05:02:26.657Z,102336.58
2019-04-14T05:02:51.391Z,102337.94
2019-04-14T05:03:16.858Z,102336.58
2019-04-14T05:03:42.604Z,102335.70
2019-04-14T05:04:07.513Z,102337.05
2019-04-14T05:04:32.954Z,102333.47
2019-04-14T05:04:57.750Z,102338.34
2019-04-14T05:06:00.443Z,102336.17
2019-04-14T05:06:52.554Z,102336.67
2019-04-14T05:07:17.358Z,102336.58
2019-04-14T05:07:42.663Z,102335.23
2019-04-14T05:08:08.659Z,102340.72
2019-04-14T05:08:34.815Z,102334.02
2019-04-14T05:09:07.946Z,102340.77
2019-04-14T05:09:36.932Z,102342.11
2019-04-14T05:10:13.192Z,102338.20
2019-04-14T05:10:39.500Z,102334.16
2019-04-14T05:11:05.792Z,102339.13
2019-04-14T05:11:36.114Z,102339.93
2019-04-14T05:12:11.603Z,102340.48
2019-04-14T05:12:39.019Z,102335.50
2019-04-14T05:13:05.356Z,102342.24
2019-04-14T05:13:31.652Z,102340.48
2019-04-14T05:13:57.911Z,102340.06
2019-04-14T05:14:24.161Z,102336.02
2019-04-14T05:14:54.462Z,102343.30
2019-04-14T05:15:35.893Z,102341.08
2019-04-14T05:16:00.596Z,102343.30
2019-04-14T05:16:26.006Z,102341.41
2019-04-14T05:16:50.783Z,102344.57
2019-04-14T05:17:17.114Z,102341.51
2019-04-14T05:17:45.724Z,102344.75
2019-04-14T05:18:13.306Z,102344.20
2019-04-14T05:18:38.080Z,102346.47
2019-04-14T05:19:14.942Z,102344.75
2019-04-14T05:19:33.652Z,102346.20
2019-04-14T05:19:56.226Z,102347.97
2019-04-14T05:20:20.964Z,102345.31
2019-04-14T05:20:46.452Z,102344.47
2019-04-14T05:21:11.112Z,102345.40
2019-04-14T05:21:36.622Z,102349.91
2019-04-14T05:22:01.312Z,102344.56
2019-04-14T05:22:26.799Z,102350.38
2019-04-14T05:22:51.547Z,102345.53
2019-04-14T05:23:17.382Z,102344.98
2019-04-14T05:23:43.063Z,102346.38
2019-04-14T05:24:09.172Z,102349.95
2019-04-14T05:24:34.010Z,102349.63
2019-04-14T05:24:59.279Z,102354.13
2019-04-14T05:25:25.326Z,102353.67
2019-04-14T05:25:50.190Z,102353.20
2019-04-14T05:26:15.568Z,102357.38
2019-04-14T05:26:40.234Z,102352.37
2019-04-14T05:27:05.730Z,102353.72
2019-04-14T05:27:30.490Z,102350.09
2019-04-14T05:27:55.869Z,102350.55
2019-04-14T05:28:20.582Z,102346.97
2019-04-14T05:28:46.023Z,102351.91
2019-04-14T05:29:10.765Z,102358.64
2019-04-14T05:29:36.426Z,102350.97